TimeEST,TemperatureF,Dew PointF,Humidity,Sea Level PressureIn,VisibilityMPH,Wind Direction,Wind SpeedMPH,Gust SpeedMPH,PrecipitationIn,Events,Conditions,WindDirDegrees,DateUTC
12:53 AM,66.9,61.0,81,30.25,10.0,ENE,8.1,-,N/A,,Scattered Clouds,70,2013-11-22 05:53:00
1:24 AM,66.2,60.8,83,30.25,10.0,ENE,6.9,-,N/A,,Mostly Cloudy,60,2013-11-22 06:24:00
1:50 AM,64.4,60.8,88,30.24,10.0,ENE,6.9,-,N/A,,Mostly Cloudy,70,2013-11-22 06:50:00
1:53 AM,64.9,61.0,87,30.24,10.0,ENE,4.6,-,N/A,,Mostly Cloudy,70,2013-11-22 06:53:00
2:53 AM,64.9,61.0,87,30.24,10.0,ENE,5.8,-,N/A,,Overcast,70,2013-11-22 07:53:00
3:53 AM,64.9,61.0,87,30.22,10.0,ENE,6.9,-,N/A,,Overcast,60,2013-11-22 08:53:00
4:53 AM,64.9,61.0,87,30.22,10.0,NE,3.5,-,N/A,,Overcast,50,2013-11-22 09:53:00
5:53 AM,64.0,61.0,90,30.23,6.0,ENE,4.6,-,N/A,,Overcast,70,2013-11-22 10:53:00
6:06 AM,64.4,60.8,88,30.23,9.0,ENE,5.8,-,N/A,,Overcast,70,2013-11-22 11:06:00
6:53 AM,64.0,61.0,90,30.24,6.0,East,6.9,-,N/A,,Overcast,80,2013-11-22 11:53:00
7:53 AM,64.0,62.1,93,30.25,6.0,ENE,6.9,-,N/A,,Overcast,60,2013-11-22 12:53:00
8:53 AM,64.9,61.0,87,30.27,10.0,ENE,5.8,-,N/A,,Overcast,70,2013-11-22 13:53:00
9:29 AM,66.2,62.6,88,30.28,10.0,NE,5.8,-,N/A,,Overcast,50,2013-11-22 14:29:00
9:53 AM,66.9,62.1,84,30.28,10.0,ENE,4.6,-,N/A,,Overcast,60,2013-11-22 14:53:00
10:53 AM,69.1,62.1,78,30.27,10.0,East,8.1,-,N/A,,Overcast,90,2013-11-22 15:53:00
11:48 AM,73.4,62.6,69,30.24,10.0,ENE,8.1,-,N/A,,Overcast,70,2013-11-22 16:48:00
11:53 AM,73.9,63.0,68,30.24,10.0,East,8.1,-,N/A,,Mostly Cloudy,90,2013-11-22 16:53:00
12:18 PM,73.4,62.6,69,30.23,10.0,East,6.9,-,N/A,,Scattered Clouds,90,2013-11-22 17:18:00
12:53 PM,75.9,64.0,67,30.21,10.0,Calm,Calm,-,N/A,,Overcast,0,2013-11-22 17:53:00
1:00 PM,75.2,64.4,69,30.21,10.0,Variable,4.6,-,N/A,,Overcast,0,2013-11-22 18:00:00
1:39 PM,78.8,64.4,61,30.19,10.0,ENE,3.5,-,N/A,,Scattered Clouds,60,2013-11-22 18:39:00
1:53 PM,80.1,64.0,58,30.18,10.0,Variable,4.6,-,N/A,,Scattered Clouds,0,2013-11-22 18:53:00
2:53 PM,79.0,64.0,60,30.17,10.0,NE,4.6,-,N/A,,Mostly Cloudy,40,2013-11-22 19:53:00
3:53 PM,78.1,66.0,66,30.17,10.0,Variable,3.5,-,0.00,Rain,Light Rain,0,2013-11-22 20:53:00
4:53 PM,75.9,66.9,74,30.17,10.0,South,3.5,-,0.00,,Mostly Cloudy,190,2013-11-22 21:53:00
5:53 PM,73.0,69.1,87,30.17,10.0,Calm,Calm,-,N/A,,Mostly Cloudy,0,2013-11-22 22:53:00
6:13 PM,73.4,68.0,83,30.18,10.0,NNW,3.5,-,N/A,,Mostly Cloudy,330,2013-11-22 23:13:00
6:40 PM,73.4,66.2,78,30.18,10.0,NNE,3.5,-,N/A,,Scattered Clouds,20,2013-11-22 23:40:00
6:53 PM,72.0,66.0,81,30.18,10.0,NNE,3.5,-,N/A,,Scattered Clouds,20,2013-11-22 23:53:00
7:53 PM,68.0,64.0,87,30.17,10.0,Calm,Calm,-,N/A,,Clear,0,2013-11-23 00:53:00
8:53 PM,66.0,63.0,90,30.16,10.0,Calm,Calm,-,N/A,,Clear,0,2013-11-23 01:53:00
9:53 PM,64.9,62.1,90,30.16,10.0,Calm,Calm,-,N/A,,Clear,0,2013-11-23 02:53:00
10:53 PM,63.0,61.0,93,30.16,10.0,Calm,Calm,-,N/A,,Clear,0,2013-11-23 03:53:00
11:53 PM,66.0,64.0,93,30.16,10.0,North,4.6,-,N/A,,Clear,350,2013-11-23 04:53:00